sensor_id;sensor_type;location;lat;lon;timestamp;temperature;humidity
15013;DHT22;7603;49.432;11.418;2023-06-10T00:01:57;11.60;99.90
15013;DHT22;7603;49.432;11.418;2023-06-10T00:04:23;11.50;99.90
15013;DHT22;7603;49.432;11.418;2023-06-10T00:06:49;11.50;99.90
15013;DHT22;7603;49.432;11.418;2023-06-10T00:09:15;11.50;99.90
15013;DHT22;7603;49.432;11.418;2023-06-10T00:11:41;11.50;99.90
15013;DHT22;7603;49.432;11.418;2023-06-10T00:14:07;11.40;99.90
15013;DHT22;7603;49.432;11.418;2023-06-10T00:16:34;11.40;99.90
15013;DHT22;7603;49.432;11.418;2023-06-10T00:19:00;11.40;99.90
15013;DHT22;7603;49.432;11.418;2023-06-10T00:21:27;11.40;99.90
15013;DHT22;7603;49.432;11.418;2023-06-10T00:23:53;11.40;99.90
15013;DHT22;7603;49.432;11.418;2023-06-10T00:26:21;11.40;99.90
15013;DHT22;7603;49.432;11.418;2023-06-10T00:28:47;11.30;99.90
15013;DHT22;7603;49.432;11.418;2023-06-10T00:31:12;11.30;99.90
15013;DHT22;7603;49.432;11.418;2023-06-10T00:33:38;11.30;99.90
15013;DHT22;7603;49.432;11.418;2023-06-10T00:36:04;11.30;99.90
15013;DHT22;7603;49.432;11.418;2023-06-10T00:38:29;11.20;99.90
15013;DHT22;7603;49.432;11.418;2023-06-10T00:40:55;11.20;99.90
15013;DHT22;7603;49.432;11.418;2023-06-10T00:43:20;11.20;99.90
15013;DHT22;7603;49.432;11.418;2023-06-10T00:45:46;11.20;99.90
15013;DHT22;7603;49.432;11.418;2023-06-10T00:48:12;11.20;99.90
15013;DHT22;7603;49.432;11.418;2023-06-10T00:50:37;11.20;99.90
15013;DHT22;7603;49.432;11.418;2023-06-10T00:53:06;11.20;99.90
15013;DHT22;7603;49.432;11.418;2023-06-10T00:55:33;11.10;99.90
15013;DHT22;7603;49.432;11.418;2023-06-10T00:57:59;11.10;99.90
15013;DHT22;7603;49.432;11.418;2023-06-10T01:00:25;11.10;99.90
15013;DHT22;7603;49.432;11.418;2023-06-10T01:02:51;11.10;99.90
15013;DHT22;7603;49.432;11.418;2023-06-10T01:05:20;11.10;99.90
15013;DHT22;7603;49.432;11.418;2023-06-10T01:08:19;11.10;99.90
15013;DHT22;7603;49.432;11.418;2023-06-10T01:10:56;11.10;99.90
15013;DHT22;7603;49.432;11.418;2023-06-10T01:13:23;11.10;99.90
15013;DHT22;7603;49.432;11.418;2023-06-10T01:15:54;11.00;99.90
15013;DHT22;7603;49.432;11.418;2023-06-10T01:18:20;11.00;99.90
15013;DHT22;7603;49.432;11.418;2023-06-10T01:20:47;11.00;99.90
15013;DHT22;7603;49.432;11.418;2023-06-10T01:23:14;11.00;99.90
15013;DHT22;7603;49.432;11.418;2023-06-10T01:26:24;11.00;99.90
15013;DHT22;7603;49.432;11.418;2023-06-10T01:28:52;11.00;99.90
15013;DHT22;7603;49.432;11.418;2023-06-10T01:34:21;11.00;99.90
15013;DHT22;7603;49.432;11.418;2023-06-10T01:36:49;10.90;99.90
15013;DHT22;7603;49.432;11.418;2023-06-10T01:39:17;10.90;99.90
15013;DHT22;7603;49.432;11.418;2023-06-10T01:41:46;10.90;99.90
15013;DHT22;7603;49.432;11.418;2023-06-10T01:44:17;10.90;99.90
15013;DHT22;7603;49.432;11.418;2023-06-10T01:46:42;10.90;99.90
15013;DHT22;7603;49.432;11.418;2023-06-10T01:49:08;10.90;99.90
15013;DHT22;7603;49.432;11.418;2023-06-10T01:51:34;10.90;99.90
15013;DHT22;7603;49.432;11.418;2023-06-10T01:53:59;10.90;99.90
15013;DHT22;7603;49.432;11.418;2023-06-10T01:56:25;10.90;99.90
15013;DHT22;7603;49.432;11.418;2023-06-10T01:58:51;10.90;99.90
15013;DHT22;7603;49.432;11.418;2023-06-10T02:01:16;10.90;99.90
15013;DHT22;7603;49.432;11.418;2023-06-10T02:03:42;10.90;99.90
15013;DHT22;7603;49.432;11.418;2023-06-10T02:06:07;10.90;99.90
15013;DHT22;7603;49.432;11.418;2023-06-10T02:08:33;10.90;99.90
15013;DHT22;7603;49.432;11.418;2023-06-10T02:10:58;10.90;99.90
15013;DHT22;7603;49.432;11.418;2023-06-10T02:13:24;10.90;99.90
15013;DHT22;7603;49.432;11.418;2023-06-10T02:15:50;10.90;99.90
15013;DHT22;7603;49.432;11.418;2023-06-10T02:18:15;10.90;99.90
15013;DHT22;7603;49.432;11.418;2023-06-10T02:20:41;10.90;99.90
15013;DHT22;7603;49.432;11.418;2023-06-10T02:23:06;10.90;99.90
15013;DHT22;7603;49.432;11.418;2023-06-10T02:25:32;10.90;99.90
15013;DHT22;7603;49.432;11.418;2023-06-10T02:27:57;10.90;99.90
15013;DHT22;7603;49.432;11.418;2023-06-10T02:30:23;11.00;99.90
15013;DHT22;7603;49.432;11.418;2023-06-10T02:32:49;10.90;99.90
15013;DHT22;7603;49.432;11.418;2023-06-10T02:35:16;10.90;99.90
15013;DHT22;7603;49.432;11.418;2023-06-10T02:37:43;10.90;99.90
15013;DHT22;7603;49.432;11.418;2023-06-10T02:40:09;10.90;99.90
15013;DHT22;7603;49.432;11.418;2023-06-10T02:42:36;10.90;99.90
15013;DHT22;7603;49.432;11.418;2023-06-10T02:45:01;10.90;99.90
15013;DHT22;7603;49.432;11.418;2023-06-10T02:47:27;10.90;99.90
15013;DHT22;7603;49.432;11.418;2023-06-10T02:49:53;10.90;99.90
15013;DHT22;7603;49.432;11.418;2023-06-10T02:52:18;10.90;99.90
15013;DHT22;7603;49.432;11.418;2023-06-10T02:54:44;10.90;99.90
15013;DHT22;7603;49.432;11.418;2023-06-10T02:57:11;10.90;99.90
15013;DHT22;7603;49.432;11.418;2023-06-10T02:59:36;10.90;99.90
15013;DHT22;7603;49.432;11.418;2023-06-10T03:02:02;10.90;99.90
15013;DHT22;7603;49.432;11.418;2023-06-10T03:04:27;10.80;99.90
15013;DHT22;7603;49.432;11.418;2023-06-10T03:06:54;10.80;99.90
15013;DHT22;7603;49.432;11.418;2023-06-10T03:09:20;10.80;99.90
15013;DHT22;7603;49.432;11.418;2023-06-10T03:11:46;10.90;99.90
15013;DHT22;7603;49.432;11.418;2023-06-10T03:14:11;10.80;99.90
15013;DHT22;7603;49.432;11.418;2023-06-10T03:16:37;10.80;99.90
15013;DHT22;7603;49.432;11.418;2023-06-10T03:19:06;10.80;99.90
15013;DHT22;7603;49.432;11.418;2023-06-10T03:21:33;10.90;99.90
15013;DHT22;7603;49.432;11.418;2023-06-10T03:23:58;10.90;99.90
15013;DHT22;7603;49.432;11.418;2023-06-10T03:26:26;10.90;99.90
15013;DHT22;7603;49.432;11.418;2023-06-10T03:28:52;10.90;99.90
15013;DHT22;7603;49.432;11.418;2023-06-10T03:31:18;10.90;99.90
15013;DHT22;7603;49.432;11.418;2023-06-10T03:33:44;10.90;99.90
15013;DHT22;7603;49.432;11.418;2023-06-10T03:36:09;11.00;99.90
15013;DHT22;7603;49.432;11.418;2023-06-10T03:38:35;11.00;99.90
15013;DHT22;7603;49.432;11.418;2023-06-10T03:41:02;11.10;99.90
15013;DHT22;7603;49.432;11.418;2023-06-10T03:43:27;11.10;99.90
15013;DHT22;7603;49.432;11.418;2023-06-10T03:45:53;11.10;99.90
15013;DHT22;7603;49.432;11.418;2023-06-10T03:48:18;11.20;99.90
15013;DHT22;7603;49.432;11.418;2023-06-10T03:50:44;11.20;99.90
15013;DHT22;7603;49.432;11.418;2023-06-10T03:53:10;11.20;99.90
15013;DHT22;7603;49.432;11.418;2023-06-10T03:55:35;11.30;99.90
15013;DHT22;7603;49.432;11.418;2023-06-10T03:58:01;11.30;99.90
15013;DHT22;7603;49.432;11.418;2023-06-10T04:00:27;11.30;99.90
15013;DHT22;7603;49.432;11.418;2023-06-10T04:02:54;11.40;99.90
15013;DHT22;7603;49.432;11.418;2023-06-10T04:05:23;11.40;99.90
15013;DHT22;7603;49.432;11.418;2023-06-10T04:07:49;11.40;99.90
15013;DHT22;7603;49.432;11.418;2023-06-10T04:10:15;11.50;99.90
15013;DHT22;7603;49.432;11.418;2023-06-10T04:12:41;11.50;99.90
15013;DHT22;7603;49.432;11.418;2023-06-10T04:15:07;11.60;99.90
15013;DHT22;7603;49.432;11.418;2023-06-10T04:17:34;11.60;99.90
15013;DHT22;7603;49.432;11.418;2023-06-10T04:19:59;11.70;99.90
15013;DHT22;7603;49.432;11.418;2023-06-10T04:22:26;11.70;99.90
15013;DHT22;7603;49.432;11.418;2023-06-10T04:24:51;11.70;99.90
15013;DHT22;7603;49.432;11.418;2023-06-10T04:27:17;11.80;99.90
15013;DHT22;7603;49.432;11.418;2023-06-10T04:29:43;11.90;99.90
15013;DHT22;7603;49.432;11.418;2023-06-10T04:32:08;11.90;99.90
15013;DHT22;7603;49.432;11.418;2023-06-10T04:34:34;12.00;99.90
15013;DHT22;7603;49.432;11.418;2023-06-10T04:37:00;12.10;99.90
15013;DHT22;7603;49.432;11.418;2023-06-10T04:39:25;12.00;99.90
15013;DHT22;7603;49.432;11.418;2023-06-10T04:41:51;12.20;99.90
15013;DHT22;7603;49.432;11.418;2023-06-10T04:44:17;12.30;99.90
15013;DHT22;7603;49.432;11.418;2023-06-10T04:46:42;12.30;99.90
15013;DHT22;7603;49.432;11.418;2023-06-10T04:49:08;12.40;99.90
15013;DHT22;7603;49.432;11.418;2023-06-10T04:51:33;12.60;99.90
15013;DHT22;7603;49.432;11.418;2023-06-10T04:53:59;12.60;99.90
15013;DHT22;7603;49.432;11.418;2023-06-10T04:56:32;12.80;99.90
15013;DHT22;7603;49.432;11.418;2023-06-10T04:58:58;12.90;99.90
15013;DHT22;7603;49.432;11.418;2023-06-10T05:01:23;13.00;99.90
15013;DHT22;7603;49.432;11.418;2023-06-10T05:03:49;13.10;99.90
15013;DHT22;7603;49.432;11.418;2023-06-10T05:06:15;13.20;99.90
15013;DHT22;7603;49.432;11.418;2023-06-10T05:08:40;13.40;99.90
15013;DHT22;7603;49.432;11.418;2023-06-10T05:11:06;13.50;99.90
15013;DHT22;7603;49.432;11.418;2023-06-10T05:13:32;13.70;99.90
15013;DHT22;7603;49.432;11.418;2023-06-10T05:15:58;13.80;99.90
15013;DHT22;7603;49.432;11.418;2023-06-10T05:18:23;14.00;99.90
15013;DHT22;7603;49.432;11.418;2023-06-10T05:20:49;14.10;99.90
15013;DHT22;7603;49.432;11.418;2023-06-10T05:23:14;14.30;99.90
15013;DHT22;7603;49.432;11.418;2023-06-10T05:25:40;14.40;99.90
15013;DHT22;7603;49.432;11.418;2023-06-10T05:28:07;14.60;99.90
15013;DHT22;7603;49.432;11.418;2023-06-10T05:30:35;14.80;99.90
15013;DHT22;7603;49.432;11.418;2023-06-10T05:33:01;15.00;99.90
15013;DHT22;7603;49.432;11.418;2023-06-10T05:35:27;15.10;99.90
15013;DHT22;7603;49.432;11.418;2023-06-10T05:37:52;15.40;99.90
15013;DHT22;7603;49.432;11.418;2023-06-10T05:40:18;15.50;99.90
15013;DHT22;7603;49.432;11.418;2023-06-10T05:42:43;15.70;99.90
15013;DHT22;7603;49.432;11.418;2023-06-10T05:45:09;15.90;99.90
15013;DHT22;7603;49.432;11.418;2023-06-10T05:47:35;16.10;99.90
15013;DHT22;7603;49.432;11.418;2023-06-10T05:50:01;16.30;99.90
15013;DHT22;7603;49.432;11.418;2023-06-10T05:52:26;16.50;99.90
15013;DHT22;7603;49.432;11.418;2023-06-10T05:54:52;16.70;99.90
15013;DHT22;7603;49.432;11.418;2023-06-10T05:57:17;16.90;99.90
15013;DHT22;7603;49.432;11.418;2023-06-10T05:59:43;17.10;99.90
15013;DHT22;7603;49.432;11.418;2023-06-10T06:02:09;17.30;99.90
15013;DHT22;7603;49.432;11.418;2023-06-10T06:04:34;17.50;99.90
15013;DHT22;7603;49.432;11.418;2023-06-10T06:07:00;17.70;99.90
15013;DHT22;7603;49.432;11.418;2023-06-10T06:09:25;17.90;99.90
15013;DHT22;7603;49.432;11.418;2023-06-10T06:11:51;18.10;99.90
15013;DHT22;7603;49.432;11.418;2023-06-10T06:14:17;18.30;99.90
15013;DHT22;7603;49.432;11.418;2023-06-10T06:16:42;18.40;99.90
15013;DHT22;7603;49.432;11.418;2023-06-10T06:19:08;18.60;99.90
15013;DHT22;7603;49.432;11.418;2023-06-10T06:21:34;18.80;99.90
15013;DHT22;7603;49.432;11.418;2023-06-10T06:24:00;18.90;99.90
15013;DHT22;7603;49.432;11.418;2023-06-10T06:26:26;19.10;99.90
15013;DHT22;7603;49.432;11.418;2023-06-10T06:28:52;19.30;99.90
15013;DHT22;7603;49.432;11.418;2023-06-10T06:31:17;19.40;99.90
15013;DHT22;7603;49.432;11.418;2023-06-10T06:33:43;19.60;99.90
15013;DHT22;7603;49.432;11.418;2023-06-10T06:36:09;19.70;99.90
15013;DHT22;7603;49.432;11.418;2023-06-10T06:38:34;19.90;99.90
15013;DHT22;7603;49.432;11.418;2023-06-10T06:41:00;20.00;99.90
15013;DHT22;7603;49.432;11.418;2023-06-10T06:43:29;20.20;99.90
15013;DHT22;7603;49.432;11.418;2023-06-10T06:45:56;20.30;99.90
15013;DHT22;7603;49.432;11.418;2023-06-10T06:48:21;20.50;99.90
15013;DHT22;7603;49.432;11.418;2023-06-10T06:50:47;20.60;99.90
15013;DHT22;7603;49.432;11.418;2023-06-10T06:53:13;20.70;99.90
15013;DHT22;7603;49.432;11.418;2023-06-10T06:55:38;20.90;99.90
15013;DHT22;7603;49.432;11.418;2023-06-10T06:58:04;21.00;99.90
15013;DHT22;7603;49.432;11.418;2023-06-10T07:00:30;21.30;99.90
15013;DHT22;7603;49.432;11.418;2023-06-10T07:02:56;21.60;99.90
15013;DHT22;7603;49.432;11.418;2023-06-10T07:05:23;21.90;99.90
15013;DHT22;7603;49.432;11.418;2023-06-10T07:07:50;22.10;99.90
15013;DHT22;7603;49.432;11.418;2023-06-10T07:10:23;22.30;99.90
15013;DHT22;7603;49.432;11.418;2023-06-10T07:12:49;22.50;99.90
15013;DHT22;7603;49.432;11.418;2023-06-10T07:15:15;22.70;99.90
15013;DHT22;7603;49.432;11.418;2023-06-10T07:17:41;22.90;99.50
15013;DHT22;7603;49.432;11.418;2023-06-10T07:20:07;23.10;98.30
15013;DHT22;7603;49.432;11.418;2023-06-10T07:22:33;23.30;97.00
15013;DHT22;7603;49.432;11.418;2023-06-10T07:24:58;23.40;96.10
15013;DHT22;7603;49.432;11.418;2023-06-10T07:27:24;23.50;95.10
15013;DHT22;7603;49.432;11.418;2023-06-10T07:29:51;23.60;94.40
15013;DHT22;7603;49.432;11.418;2023-06-10T07:32:16;23.60;93.30
15013;DHT22;7603;49.432;11.418;2023-06-10T07:34:42;23.70;92.50
15013;DHT22;7603;49.432;11.418;2023-06-10T07:37:08;23.80;91.90
15013;DHT22;7603;49.432;11.418;2023-06-10T07:39:34;23.90;91.00
15013;DHT22;7603;49.432;11.418;2023-06-10T07:42:00;24.00;90.60
15013;DHT22;7603;49.432;11.418;2023-06-10T07:44:25;24.10;90.20
15013;DHT22;7603;49.432;11.418;2023-06-10T07:46:51;24.20;89.30
15013;DHT22;7603;49.432;11.418;2023-06-10T07:49:17;24.20;86.70
15013;DHT22;7603;49.432;11.418;2023-06-10T07:51:42;24.30;86.30
15013;DHT22;7603;49.432;11.418;2023-06-10T07:54:08;24.30;85.40
15013;DHT22;7603;49.432;11.418;2023-06-10T07:56:33;24.30;84.30
15013;DHT22;7603;49.432;11.418;2023-06-10T07:58:59;24.30;83.50
15013;DHT22;7603;49.432;11.418;2023-06-10T08:01:25;24.30;82.80
15013;DHT22;7603;49.432;11.418;2023-06-10T08:03:51;24.40;82.40
15013;DHT22;7603;49.432;11.418;2023-06-10T08:06:16;24.40;81.20
15013;DHT22;7603;49.432;11.418;2023-06-10T08:08:43;24.50;81.70
15013;DHT22;7603;49.432;11.418;2023-06-10T08:11:11;24.60;81.00
15013;DHT22;7603;49.432;11.418;2023-06-10T08:13:36;24.70;80.10
15013;DHT22;7603;49.432;11.418;2023-06-10T08:16:02;24.80;80.10
15013;DHT22;7603;49.432;11.418;2023-06-10T08:18:28;24.90;79.40
15013;DHT22;7603;49.432;11.418;2023-06-10T08:20:54;25.00;79.80
15013;DHT22;7603;49.432;11.418;2023-06-10T08:23:20;25.10;78.60
15013;DHT22;7603;49.432;11.418;2023-06-10T08:25:46;25.20;77.60
15013;DHT22;7603;49.432;11.418;2023-06-10T08:28:11;25.20;76.80
15013;DHT22;7603;49.432;11.418;2023-06-10T08:30:37;25.30;75.60
15013;DHT22;7603;49.432;11.418;2023-06-10T08:33:03;25.40;75.40
15013;DHT22;7603;49.432;11.418;2023-06-10T08:35:28;25.50;75.00
15013;DHT22;7603;49.432;11.418;2023-06-10T08:37:54;25.50;74.60
15013;DHT22;7603;49.432;11.418;2023-06-10T08:40:19;25.60;73.90
15013;DHT22;7603;49.432;11.418;2023-06-10T08:42:45;25.60;73.70
15013;DHT22;7603;49.432;11.418;2023-06-10T08:45:17;25.80;73.10
15013;DHT22;7603;49.432;11.418;2023-06-10T08:47:46;25.90;72.00
15013;DHT22;7603;49.432;11.418;2023-06-10T08:50:16;26.10;71.00
15013;DHT22;7603;49.432;11.418;2023-06-10T08:52:44;26.20;70.30
15013;DHT22;7603;49.432;11.418;2023-06-10T08:55:26;26.20;69.10
15013;DHT22;7603;49.432;11.418;2023-06-10T08:57:53;26.20;67.80
15013;DHT22;7603;49.432;11.418;2023-06-10T09:00:19;26.20;67.90
15013;DHT22;7603;49.432;11.418;2023-06-10T09:02:45;26.20;67.10
15013;DHT22;7603;49.432;11.418;2023-06-10T09:05:12;26.10;66.60
15013;DHT22;7603;49.432;11.418;2023-06-10T09:07:39;26.20;66.50
15013;DHT22;7603;49.432;11.418;2023-06-10T09:10:05;26.30;66.50
15013;DHT22;7603;49.432;11.418;2023-06-10T09:12:33;26.50;65.50
15013;DHT22;7603;49.432;11.418;2023-06-10T09:14:59;26.70;64.90
15013;DHT22;7603;49.432;11.418;2023-06-10T09:17:25;26.90;63.50
15013;DHT22;7603;49.432;11.418;2023-06-10T09:19:52;27.00;63.40
15013;DHT22;7603;49.432;11.418;2023-06-10T09:22:19;27.10;62.70
15013;DHT22;7603;49.432;11.418;2023-06-10T09:24:46;27.10;61.90
15013;DHT22;7603;49.432;11.418;2023-06-10T09:27:12;27.20;61.20
15013;DHT22;7603;49.432;11.418;2023-06-10T09:29:54;27.20;61.50
15013;DHT22;7603;49.432;11.418;2023-06-10T09:32:20;27.40;61.70
15013;DHT22;7603;49.432;11.418;2023-06-10T09:34:47;27.60;61.20
15013;DHT22;7603;49.432;11.418;2023-06-10T09:37:14;27.80;60.40
15013;DHT22;7603;49.432;11.418;2023-06-10T09:39:44;28.00;59.40
15013;DHT22;7603;49.432;11.418;2023-06-10T09:42:17;28.00;59.40
15013;DHT22;7603;49.432;11.418;2023-06-10T09:44:50;28.10;59.20
15013;DHT22;7603;49.432;11.418;2023-06-10T09:47:21;28.20;59.20
15013;DHT22;7603;49.432;11.418;2023-06-10T09:49:50;28.40;59.20
15013;DHT22;7603;49.432;11.418;2023-06-10T09:52:27;28.70;58.70
15013;DHT22;7603;49.432;11.418;2023-06-10T09:55:00;29.00;57.60
15013;DHT22;7603;49.432;11.418;2023-06-10T09:57:30;29.00;57.00
15013;DHT22;7603;49.432;11.418;2023-06-10T09:59:57;29.10;56.00
15013;DHT22;7603;49.432;11.418;2023-06-10T10:02:23;29.10;56.60
15013;DHT22;7603;49.432;11.418;2023-06-10T10:04:49;29.10;56.30
15013;DHT22;7603;49.432;11.418;2023-06-10T10:07:14;29.20;56.80
15013;DHT22;7603;49.432;11.418;2023-06-10T10:09:41;29.50;56.10
15013;DHT22;7603;49.432;11.418;2023-06-10T10:12:12;29.70;55.60
15013;DHT22;7603;49.432;11.418;2023-06-10T10:14:38;30.00;55.90
15013;DHT22;7603;49.432;11.418;2023-06-10T10:17:10;30.20;54.90
15013;DHT22;7603;49.432;11.418;2023-06-10T10:19:43;30.30;54.00
15013;DHT22;7603;49.432;11.418;2023-06-10T10:22:20;30.20;53.50
15013;DHT22;7603;49.432;11.418;2023-06-10T10:24:50;30.20;53.50
15013;DHT22;7603;49.432;11.418;2023-06-10T10:30:06;30.60;52.10
15013;DHT22;7603;49.432;11.418;2023-06-10T10:32:38;30.90;52.30
15013;DHT22;7603;49.432;11.418;2023-06-10T10:35:14;31.10;51.50
15013;DHT22;7603;49.432;11.418;2023-06-10T10:37:40;31.20;51.00
15013;DHT22;7603;49.432;11.418;2023-06-10T10:40:07;31.40;50.70
15013;DHT22;7603;49.432;11.418;2023-06-10T10:42:34;31.60;50.60
15013;DHT22;7603;49.432;11.418;2023-06-10T10:45:01;32.00;50.00
15013;DHT22;7603;49.432;11.418;2023-06-10T10:47:27;32.70;49.10
15013;DHT22;7603;49.432;11.418;2023-06-10T10:49:55;33.70;47.90
15013;DHT22;7603;49.432;11.418;2023-06-10T10:52:24;35.20;45.80
15013;DHT22;7603;49.432;11.418;2023-06-10T10:54:53;36.70;43.00
15013;DHT22;7603;49.432;11.418;2023-06-10T10:57:23;38.10;40.40
15013;DHT22;7603;49.432;11.418;2023-06-10T11:04:58;39.40;35.10
15013;DHT22;7603;49.432;11.418;2023-06-10T11:07:30;38.40;35.90
15013;DHT22;7603;49.432;11.418;2023-06-10T11:10:10;37.10;36.90
15013;DHT22;7603;49.432;11.418;2023-06-10T11:15:11;35.10;39.90
15013;DHT22;7603;49.432;11.418;2023-06-10T11:17:37;35.50;40.10
15013;DHT22;7603;49.432;11.418;2023-06-10T11:20:03;37.20;38.60
15013;DHT22;7603;49.432;11.418;2023-06-10T11:22:29;38.70;36.70
15013;DHT22;7603;49.432;11.418;2023-06-10T11:24:54;39.70;34.80
15013;DHT22;7603;49.432;11.418;2023-06-10T11:27:22;40.10;33.70
15013;DHT22;7603;49.432;11.418;2023-06-10T11:32:33;40.50;32.70
15013;DHT22;7603;49.432;11.418;2023-06-10T11:34:59;40.80;31.90
15013;DHT22;7603;49.432;11.418;2023-06-10T11:37:25;40.30;31.70
15013;DHT22;7603;49.432;11.418;2023-06-10T11:39:54;39.60;32.20
15013;DHT22;7603;49.432;11.418;2023-06-10T11:42:23;39.90;32.40
15013;DHT22;7603;49.432;11.418;2023-06-10T11:44:50;40.90;31.90
15013;DHT22;7603;49.432;11.418;2023-06-10T11:47:17;42.00;30.50
15013;DHT22;7603;49.432;11.418;2023-06-10T11:49:42;43.00;30.00
15013;DHT22;7603;49.432;11.418;2023-06-10T11:52:08;44.20;28.90
15013;DHT22;7603;49.432;11.418;2023-06-10T11:54:34;45.40;28.00
15013;DHT22;7603;49.432;11.418;2023-06-10T11:57:00;46.20;27.10
15013;DHT22;7603;49.432;11.418;2023-06-10T11:59:29;45.60;26.70
15013;DHT22;7603;49.432;11.418;2023-06-10T12:01:55;44.30;27.70
15013;DHT22;7603;49.432;11.418;2023-06-10T12:04:20;44.10;28.00
15013;DHT22;7603;49.432;11.418;2023-06-10T12:06:52;44.80;27.90
15013;DHT22;7603;49.432;11.418;2023-06-10T12:11:54;44.90;27.00
15013;DHT22;7603;49.432;11.418;2023-06-10T12:14:51;43.80;27.10
15013;DHT22;7603;49.432;11.418;2023-06-10T12:17:35;42.70;27.70
15013;DHT22;7603;49.432;11.418;2023-06-10T12:20:05;42.80;28.30
15013;DHT22;7603;49.432;11.418;2023-06-10T12:22:42;43.70;27.70
15013;DHT22;7603;49.432;11.418;2023-06-10T12:25:08;44.80;26.70
15013;DHT22;7603;49.432;11.418;2023-06-10T12:27:35;46.30;25.90
15013;DHT22;7603;49.432;11.418;2023-06-10T12:30:02;47.60;25.00
15013;DHT22;7603;49.432;11.418;2023-06-10T12:32:55;47.50;25.10
15013;DHT22;7603;49.432;11.418;2023-06-10T12:35:23;45.80;25.10
15013;DHT22;7603;49.432;11.418;2023-06-10T12:38:02;44.30;26.30
15013;DHT22;7603;49.432;11.418;2023-06-10T12:40:30;43.70;26.60
15013;DHT22;7603;49.432;11.418;2023-06-10T12:42:57;44.40;26.50
15013;DHT22;7603;49.432;11.418;2023-06-10T12:45:30;45.80;25.80
15013;DHT22;7603;49.432;11.418;2023-06-10T12:48:10;47.20;24.40
15013;DHT22;7603;49.432;11.418;2023-06-10T12:50:41;48.30;23.80
15013;DHT22;7603;49.432;11.418;2023-06-10T12:53:07;49.00;23.80
15013;DHT22;7603;49.432;11.418;2023-06-10T12:55:33;48.30;23.50
15013;DHT22;7603;49.432;11.418;2023-06-10T12:58:00;46.90;24.00
15013;DHT22;7603;49.432;11.418;2023-06-10T13:00:27;45.40;24.90
15013;DHT22;7603;49.432;11.418;2023-06-10T13:03:02;44.70;25.40
15013;DHT22;7603;49.432;11.418;2023-06-10T13:05:29;44.60;25.60
15013;DHT22;7603;49.432;11.418;2023-06-10T13:07:55;44.50;25.70
15013;DHT22;7603;49.432;11.418;2023-06-10T13:10:21;45.10;25.70
15013;DHT22;7603;49.432;11.418;2023-06-10T13:12:47;46.10;25.30
15013;DHT22;7603;49.432;11.418;2023-06-10T13:15:13;47.60;24.60
15013;DHT22;7603;49.432;11.418;2023-06-10T13:17:40;48.60;23.80
15013;DHT22;7603;49.432;11.418;2023-06-10T13:20:07;48.80;22.70
15013;DHT22;7603;49.432;11.418;2023-06-10T13:22:33;48.30;22.90
15013;DHT22;7603;49.432;11.418;2023-06-10T13:25:01;46.60;23.90
15013;DHT22;7603;49.432;11.418;2023-06-10T13:27:26;44.70;24.80
15013;DHT22;7603;49.432;11.418;2023-06-10T13:29:52;43.10;25.80
15013;DHT22;7603;49.432;11.418;2023-06-10T13:32:18;41.90;27.00
15013;DHT22;7603;49.432;11.418;2023-06-10T13:34:44;40.80;27.30
15013;DHT22;7603;49.432;11.418;2023-06-10T13:37:09;40.10;28.00
15013;DHT22;7603;49.432;11.418;2023-06-10T13:39:35;39.70;28.50
15013;DHT22;7603;49.432;11.418;2023-06-10T13:42:00;39.20;28.90
15013;DHT22;7603;49.432;11.418;2023-06-10T13:44:26;38.90;29.50
15013;DHT22;7603;49.432;11.418;2023-06-10T13:46:51;38.70;29.60
15013;DHT22;7603;49.432;11.418;2023-06-10T13:49:18;39.10;29.90
15013;DHT22;7603;49.432;11.418;2023-06-10T13:51:44;39.40;29.90
15013;DHT22;7603;49.432;11.418;2023-06-10T13:54:09;39.40;29.50
15013;DHT22;7603;49.432;11.418;2023-06-10T13:56:35;39.40;29.40
15013;DHT22;7603;49.432;11.418;2023-06-10T13:59:03;39.50;29.50
15013;DHT22;7603;49.432;11.418;2023-06-10T14:01:29;40.30;29.40
15013;DHT22;7603;49.432;11.418;2023-06-10T14:03:55;41.50;28.50
15013;DHT22;7603;49.432;11.418;2023-06-10T14:06:20;42.20;27.90
15013;DHT22;7603;49.432;11.418;2023-06-10T14:08:46;42.20;27.60
15013;DHT22;7603;49.432;11.418;2023-06-10T14:11:12;41.90;27.60
15013;DHT22;7603;49.432;11.418;2023-06-10T14:13:37;41.30;27.60
15013;DHT22;7603;49.432;11.418;2023-06-10T14:16:06;40.70;28.10
15013;DHT22;7603;49.432;11.418;2023-06-10T14:18:32;40.50;28.60
15013;DHT22;7603;49.432;11.418;2023-06-10T14:20:57;40.90;28.60
15013;DHT22;7603;49.432;11.418;2023-06-10T14:23:23;41.30;28.00
15013;DHT22;7603;49.432;11.418;2023-06-10T14:25:50;41.80;27.50
15013;DHT22;7603;49.432;11.418;2023-06-10T14:28:15;41.90;27.10
15013;DHT22;7603;49.432;11.418;2023-06-10T14:30:41;41.60;27.50
15013;DHT22;7603;49.432;11.418;2023-06-10T14:33:06;41.60;27.70
15013;DHT22;7603;49.432;11.418;2023-06-10T14:35:32;42.50;27.50
15013;DHT22;7603;49.432;11.418;2023-06-10T14:37:57;44.00;26.60
15013;DHT22;7603;49.432;11.418;2023-06-10T14:40:23;45.90;26.00
15013;DHT22;7603;49.432;11.418;2023-06-10T14:42:50;47.20;24.50
15013;DHT22;7603;49.432;11.418;2023-06-10T14:45:15;47.10;23.90
15013;DHT22;7603;49.432;11.418;2023-06-10T14:47:41;46.20;24.60
15013;DHT22;7603;49.432;11.418;2023-06-10T14:50:07;44.60;25.20
15013;DHT22;7603;49.432;11.418;2023-06-10T14:52:33;43.10;26.00
15013;DHT22;7603;49.432;11.418;2023-06-10T14:54:58;41.40;27.00
15013;DHT22;7603;49.432;11.418;2023-06-10T14:57:24;39.50;28.30
15013;DHT22;7603;49.432;11.418;2023-06-10T14:59:49;37.80;29.90
15013;DHT22;7603;49.432;11.418;2023-06-10T15:02:15;36.40;31.50
15013;DHT22;7603;49.432;11.418;2023-06-10T15:04:40;35.30;33.40
15013;DHT22;7603;49.432;11.418;2023-06-10T15:07:06;34.40;34.80
15013;DHT22;7603;49.432;11.418;2023-06-10T15:09:32;33.80;35.90
15013;DHT22;7603;49.432;11.418;2023-06-10T15:11:58;34.60;36.60
15013;DHT22;7603;49.432;11.418;2023-06-10T15:14:25;36.70;34.90
15013;DHT22;7603;49.432;11.418;2023-06-10T15:16:51;39.20;32.30
15013;DHT22;7603;49.432;11.418;2023-06-10T15:19:16;41.60;29.90
15013;DHT22;7603;49.432;11.418;2023-06-10T15:21:42;43.80;27.70
15013;DHT22;7603;49.432;11.418;2023-06-10T15:24:08;45.40;26.30
15013;DHT22;7603;49.432;11.418;2023-06-10T15:26:34;46.60;25.50
15013;DHT22;7603;49.432;11.418;2023-06-10T15:28:59;47.30;24.90
15013;DHT22;7603;49.432;11.418;2023-06-10T15:31:29;47.90;24.20
15013;DHT22;7603;49.432;11.418;2023-06-10T15:33:55;47.70;23.90
15013;DHT22;7603;49.432;11.418;2023-06-10T15:36:21;47.90;23.90
15013;DHT22;7603;49.432;11.418;2023-06-10T15:38:46;47.80;24.00
15013;DHT22;7603;49.432;11.418;2023-06-10T15:41:12;48.40;24.00
15013;DHT22;7603;49.432;11.418;2023-06-10T15:43:38;48.70;23.60
15013;DHT22;7603;49.432;11.418;2023-06-10T15:46:04;49.30;23.50
15013;DHT22;7603;49.432;11.418;2023-06-10T15:48:30;49.80;23.30